sensor_id;sensor_type;location;lat;lon;timestamp;P1;durP1;ratioP1;P2;durP2;ratioP2
10333;SDS011;5212;47.892;16.406;2024-03-08T00:00:26;30.40;;;15.47;;
10333;SDS011;5212;47.892;16.406;2024-03-08T00:02:52;32.60;;;17.33;;
10333;SDS011;5212;47.892;16.406;2024-03-08T00:05:19;31.43;;;17.30;;
10333;SDS011;5212;47.892;16.406;2024-03-08T00:07:45;38.83;;;18.87;;
10333;SDS011;5212;47.892;16.406;2024-03-08T00:10:12;35.37;;;17.00;;
10333;SDS011;5212;47.892;16.406;2024-03-08T00:12:38;39.30;;;18.80;;
10333;SDS011;5212;47.892;16.406;2024-03-08T00:15:08;38.07;;;20.17;;
10333;SDS011;5212;47.892;16.406;2024-03-08T00:17:34;36.27;;;18.97;;
10333;SDS011;5212;47.892;16.406;2024-03-08T00:20:00;31.07;;;15.77;;
10333;SDS011;5212;47.892;16.406;2024-03-08T00:22:28;33.00;;;16.13;;
10333;SDS011;5212;47.892;16.406;2024-03-08T00:24:55;34.40;;;18.23;;
10333;SDS011;5212;47.892;16.406;2024-03-08T00:27:21;35.73;;;18.20;;
10333;SDS011;5212;47.892;16.406;2024-03-08T00:29:47;40.20;;;18.27;;
10333;SDS011;5212;47.892;16.406;2024-03-08T00:32:14;38.57;;;19.53;;
10333;SDS011;5212;47.892;16.406;2024-03-08T00:34:40;37.30;;;17.63;;
10333;SDS011;5212;47.892;16.406;2024-03-08T00:37:06;35.43;;;18.03;;
10333;SDS011;5212;47.892;16.406;2024-03-08T00:39:33;33.80;;;17.03;;
10333;SDS011;5212;47.892;16.406;2024-03-08T00:41:59;40.70;;;18.57;;
10333;SDS011;5212;47.892;16.406;2024-03-08T00:44:25;32.50;;;18.00;;
10333;SDS011;5212;47.892;16.406;2024-03-08T00:46:51;34.13;;;17.63;;
10333;SDS011;5212;47.892;16.406;2024-03-08T00:49:18;37.03;;;17.97;;
10333;SDS011;5212;47.892;16.406;2024-03-08T00:51:45;42.87;;;19.70;;
10333;SDS011;5212;47.892;16.406;2024-03-08T00:54:11;41.27;;;19.97;;
10333;SDS011;5212;47.892;16.406;2024-03-08T00:56:37;36.17;;;18.27;;
10333;SDS011;5212;47.892;16.406;2024-03-08T00:59:04;33.47;;;17.03;;
10333;SDS011;5212;47.892;16.406;2024-03-08T01:01:30;35.33;;;17.23;;
10333;SDS011;5212;47.892;16.406;2024-03-08T01:03:56;32.83;;;17.03;;
10333;SDS011;5212;47.892;16.406;2024-03-08T01:06:22;32.73;;;16.30;;
10333;SDS011;5212;47.892;16.406;2024-03-08T01:08:48;35.53;;;16.40;;
10333;SDS011;5212;47.892;16.406;2024-03-08T01:11:18;31.43;;;16.73;;
10333;SDS011;5212;47.892;16.406;2024-03-08T01:13:44;37.17;;;18.23;;
10333;SDS011;5212;47.892;16.406;2024-03-08T01:16:12;32.73;;;16.80;;
10333;SDS011;5212;47.892;16.406;2024-03-08T01:18:38;32.23;;;17.20;;
10333;SDS011;5212;47.892;16.406;2024-03-08T01:21:04;34.83;;;18.03;;
10333;SDS011;5212;47.892;16.406;2024-03-08T01:23:31;35.87;;;16.87;;
10333;SDS011;5212;47.892;16.406;2024-03-08T01:25:57;41.80;;;18.90;;
10333;SDS011;5212;47.892;16.406;2024-03-08T01:28:23;37.93;;;18.83;;
10333;SDS011;5212;47.892;16.406;2024-03-08T01:30:49;39.77;;;19.40;;
10333;SDS011;5212;47.892;16.406;2024-03-08T01:33:20;35.30;;;18.50;;
10333;SDS011;5212;47.892;16.406;2024-03-08T01:35:47;32.03;;;17.03;;
10333;SDS011;5212;47.892;16.406;2024-03-08T01:38:13;36.67;;;18.73;;
10333;SDS011;5212;47.892;16.406;2024-03-08T01:40:41;35.93;;;18.37;;
10333;SDS011;5212;47.892;16.406;2024-03-08T01:43:19;39.43;;;17.53;;
10333;SDS011;5212;47.892;16.406;2024-03-08T01:45:46;35.90;;;17.07;;
10333;SDS011;5212;47.892;16.406;2024-03-08T01:48:12;38.10;;;17.90;;
10333;SDS011;5212;47.892;16.406;2024-03-08T01:50:39;33.87;;;17.50;;
10333;SDS011;5212;47.892;16.406;2024-03-08T01:53:06;33.50;;;16.43;;
10333;SDS011;5212;47.892;16.406;2024-03-08T01:55:33;38.03;;;17.80;;
10333;SDS011;5212;47.892;16.406;2024-03-08T01:58:01;34.83;;;18.07;;
10333;SDS011;5212;47.892;16.406;2024-03-08T02:00:29;31.37;;;16.77;;
10333;SDS011;5212;47.892;16.406;2024-03-08T02:02:55;34.87;;;16.93;;
10333;SDS011;5212;47.892;16.406;2024-03-08T02:05:22;33.33;;;17.17;;
10333;SDS011;5212;47.892;16.406;2024-03-08T02:07:48;36.33;;;18.57;;
10333;SDS011;5212;47.892;16.406;2024-03-08T02:10:15;34.93;;;16.77;;
10333;SDS011;5212;47.892;16.406;2024-03-08T02:12:41;36.00;;;17.13;;
10333;SDS011;5212;47.892;16.406;2024-03-08T02:15:08;31.47;;;15.90;;
10333;SDS011;5212;47.892;16.406;2024-03-08T02:17:35;33.10;;;16.20;;
10333;SDS011;5212;47.892;16.406;2024-03-08T02:20:01;39.07;;;17.87;;
10333;SDS011;5212;47.892;16.406;2024-03-08T02:22:29;32.87;;;16.00;;
10333;SDS011;5212;47.892;16.406;2024-03-08T02:24:56;36.33;;;17.40;;
10333;SDS011;5212;47.892;16.406;2024-03-08T02:27:26;29.50;;;15.33;;
10333;SDS011;5212;47.892;16.406;2024-03-08T02:29:52;32.47;;;15.50;;
10333;SDS011;5212;47.892;16.406;2024-03-08T02:32:21;40.93;;;18.80;;
10333;SDS011;5212;47.892;16.406;2024-03-08T02:34:47;34.20;;;16.70;;
10333;SDS011;5212;47.892;16.406;2024-03-08T02:37:13;33.10;;;17.47;;
10333;SDS011;5212;47.892;16.406;2024-03-08T02:39:40;34.40;;;16.50;;
10333;SDS011;5212;47.892;16.406;2024-03-08T02:42:06;33.20;;;17.47;;
10333;SDS011;5212;47.892;16.406;2024-03-08T02:44:32;39.83;;;19.80;;
10333;SDS011;5212;47.892;16.406;2024-03-08T02:46:58;34.37;;;17.80;;
10333;SDS011;5212;47.892;16.406;2024-03-08T02:49:25;38.47;;;19.07;;
10333;SDS011;5212;47.892;16.406;2024-03-08T02:51:51;40.57;;;18.47;;
10333;SDS011;5212;47.892;16.406;2024-03-08T02:54:18;35.17;;;18.40;;
10333;SDS011;5212;47.892;16.406;2024-03-08T02:56:45;40.20;;;19.10;;
10333;SDS011;5212;47.892;16.406;2024-03-08T02:59:11;35.13;;;17.53;;
10333;SDS011;5212;47.892;16.406;2024-03-08T03:01:38;38.70;;;19.40;;
10333;SDS011;5212;47.892;16.406;2024-03-08T03:04:04;35.57;;;17.47;;
10333;SDS011;5212;47.892;16.406;2024-03-08T03:06:30;36.97;;;18.67;;
10333;SDS011;5212;47.892;16.406;2024-03-08T03:08:56;34.60;;;17.73;;
10333;SDS011;5212;47.892;16.406;2024-03-08T03:11:23;40.00;;;19.37;;
10333;SDS011;5212;47.892;16.406;2024-03-08T03:13:50;33.90;;;17.23;;
10333;SDS011;5212;47.892;16.406;2024-03-08T03:16:19;37.10;;;19.23;;
10333;SDS011;5212;47.892;16.406;2024-03-08T03:18:45;37.00;;;17.73;;
10333;SDS011;5212;47.892;16.406;2024-03-08T03:21:11;37.70;;;19.77;;
10333;SDS011;5212;47.892;16.406;2024-03-08T03:23:38;36.37;;;17.97;;
10333;SDS011;5212;47.892;16.406;2024-03-08T03:26:05;37.93;;;18.63;;
10333;SDS011;5212;47.892;16.406;2024-03-08T03:28:32;35.37;;;18.67;;
10333;SDS011;5212;47.892;16.406;2024-03-08T03:30:59;40.20;;;19.07;;
10333;SDS011;5212;47.892;16.406;2024-03-08T03:33:26;38.37;;;19.00;;
10333;SDS011;5212;47.892;16.406;2024-03-08T03:35:52;38.00;;;20.43;;
10333;SDS011;5212;47.892;16.406;2024-03-08T03:38:19;44.67;;;20.40;;
10333;SDS011;5212;47.892;16.406;2024-03-08T03:40:48;42.83;;;20.07;;
10333;SDS011;5212;47.892;16.406;2024-03-08T03:43:17;39.93;;;19.50;;
10333;SDS011;5212;47.892;16.406;2024-03-08T03:45:43;36.27;;;18.37;;
10333;SDS011;5212;47.892;16.406;2024-03-08T03:48:10;42.93;;;20.80;;
10333;SDS011;5212;47.892;16.406;2024-03-08T03:50:36;42.77;;;20.57;;
10333;SDS011;5212;47.892;16.406;2024-03-08T03:53:02;40.33;;;20.00;;
10333;SDS011;5212;47.892;16.406;2024-03-08T03:55:28;44.43;;;21.60;;
10333;SDS011;5212;47.892;16.406;2024-03-08T03:57:55;35.93;;;17.73;;
10333;SDS011;5212;47.892;16.406;2024-03-08T04:00:21;41.43;;;20.70;;
10333;SDS011;5212;47.892;16.406;2024-03-08T04:02:47;41.50;;;19.60;;
10333;SDS011;5212;47.892;16.406;2024-03-08T04:05:13;40.83;;;19.53;;
10333;SDS011;5212;47.892;16.406;2024-03-08T04:07:40;39.40;;;20.63;;
10333;SDS011;5212;47.892;16.406;2024-03-08T04:10:06;38.13;;;19.03;;
10333;SDS011;5212;47.892;16.406;2024-03-08T04:12:34;41.00;;;20.87;;
10333;SDS011;5212;47.892;16.406;2024-03-08T04:15:00;37.10;;;18.90;;
10333;SDS011;5212;47.892;16.406;2024-03-08T04:17:26;42.33;;;19.67;;
10333;SDS011;5212;47.892;16.406;2024-03-08T04:19:53;36.43;;;18.87;;
10333;SDS011;5212;47.892;16.406;2024-03-08T04:22:19;40.67;;;19.53;;
10333;SDS011;5212;47.892;16.406;2024-03-08T04:24:46;40.80;;;20.57;;
10333;SDS011;5212;47.892;16.406;2024-03-08T04:27:12;45.37;;;20.30;;
10333;SDS011;5212;47.892;16.406;2024-03-08T04:29:38;37.10;;;18.63;;
10333;SDS011;5212;47.892;16.406;2024-03-08T04:32:04;38.97;;;20.83;;
10333;SDS011;5212;47.892;16.406;2024-03-08T04:34:33;44.80;;;22.27;;
10333;SDS011;5212;47.892;16.406;2024-03-08T04:36:59;44.87;;;21.03;;
10333;SDS011;5212;47.892;16.406;2024-03-08T04:39:26;37.97;;;19.57;;
10333;SDS011;5212;47.892;16.406;2024-03-08T04:41:53;40.30;;;20.13;;
10333;SDS011;5212;47.892;16.406;2024-03-08T04:44:21;40.87;;;19.07;;
10333;SDS011;5212;47.892;16.406;2024-03-08T04:46:48;37.37;;;19.50;;
10333;SDS011;5212;47.892;16.406;2024-03-08T04:49:14;41.17;;;21.73;;
10333;SDS011;5212;47.892;16.406;2024-03-08T04:51:40;43.60;;;21.00;;
10333;SDS011;5212;47.892;16.406;2024-03-08T04:54:06;42.50;;;20.50;;
10333;SDS011;5212;47.892;16.406;2024-03-08T04:56:33;39.20;;;19.10;;
10333;SDS011;5212;47.892;16.406;2024-03-08T04:58:59;43.07;;;20.17;;
10333;SDS011;5212;47.892;16.406;2024-03-08T05:01:25;39.33;;;20.70;;
10333;SDS011;5212;47.892;16.406;2024-03-08T05:03:51;40.63;;;20.93;;
10333;SDS011;5212;47.892;16.406;2024-03-08T05:06:20;39.23;;;20.13;;
10333;SDS011;5212;47.892;16.406;2024-03-08T05:08:46;44.67;;;20.07;;
10333;SDS011;5212;47.892;16.406;2024-03-08T05:11:12;36.53;;;18.43;;
10333;SDS011;5212;47.892;16.406;2024-03-08T05:13:40;41.33;;;21.37;;
10333;SDS011;5212;47.892;16.406;2024-03-08T05:16:06;40.50;;;19.77;;
10333;SDS011;5212;47.892;16.406;2024-03-08T05:18:33;37.03;;;19.50;;
10333;SDS011;5212;47.892;16.406;2024-03-08T05:21:01;28.73;;;16.10;;
10333;SDS011;5212;47.892;16.406;2024-03-08T05:23:29;39.30;;;18.87;;
10333;SDS011;5212;47.892;16.406;2024-03-08T05:25:55;40.50;;;18.90;;
10333;SDS011;5212;47.892;16.406;2024-03-08T05:28:21;39.53;;;18.60;;
10333;SDS011;5212;47.892;16.406;2024-03-08T05:30:47;41.10;;;20.93;;
10333;SDS011;5212;47.892;16.406;2024-03-08T05:33:13;40.30;;;19.00;;
10333;SDS011;5212;47.892;16.406;2024-03-08T05:35:39;37.47;;;19.20;;
10333;SDS011;5212;47.892;16.406;2024-03-08T05:38:05;40.67;;;20.40;;
10333;SDS011;5212;47.892;16.406;2024-03-08T05:40:32;39.97;;;19.17;;
10333;SDS011;5212;47.892;16.406;2024-03-08T05:42:58;39.10;;;19.20;;
10333;SDS011;5212;47.892;16.406;2024-03-08T05:45:24;44.27;;;19.37;;
10333;SDS011;5212;47.892;16.406;2024-03-08T05:47:51;40.37;;;20.07;;
10333;SDS011;5212;47.892;16.406;2024-03-08T05:50:17;36.73;;;19.23;;
10333;SDS011;5212;47.892;16.406;2024-03-08T05:52:44;36.57;;;19.10;;
10333;SDS011;5212;47.892;16.406;2024-03-08T05:55:10;32.33;;;16.53;;
10333;SDS011;5212;47.892;16.406;2024-03-08T05:57:39;42.10;;;20.93;;
10333;SDS011;5212;47.892;16.406;2024-03-08T06:00:05;37.57;;;17.87;;
10333;SDS011;5212;47.892;16.406;2024-03-08T06:02:32;39.27;;;18.00;;
10333;SDS011;5212;47.892;16.406;2024-03-08T06:04:59;40.47;;;18.97;;
10333;SDS011;5212;47.892;16.406;2024-03-08T06:07:27;49.70;;;23.40;;
10333;SDS011;5212;47.892;16.406;2024-03-08T06:09:53;39.80;;;20.43;;
10333;SDS011;5212;47.892;16.406;2024-03-08T06:12:19;37.50;;;18.27;;
10333;SDS011;5212;47.892;16.406;2024-03-08T06:14:45;46.00;;;20.10;;
10333;SDS011;5212;47.892;16.406;2024-03-08T06:17:11;48.70;;;21.40;;
10333;SDS011;5212;47.892;16.406;2024-03-08T06:19:37;44.57;;;20.83;;
10333;SDS011;5212;47.892;16.406;2024-03-08T06:22:04;41.40;;;19.90;;
10333;SDS011;5212;47.892;16.406;2024-03-08T06:24:31;43.63;;;21.17;;
10333;SDS011;5212;47.892;16.406;2024-03-08T06:26:57;37.43;;;18.57;;
10333;SDS011;5212;47.892;16.406;2024-03-08T06:29:23;34.70;;;17.93;;
10333;SDS011;5212;47.892;16.406;2024-03-08T06:31:49;40.07;;;18.87;;
10333;SDS011;5212;47.892;16.406;2024-03-08T06:34:15;37.83;;;17.13;;
10333;SDS011;5212;47.892;16.406;2024-03-08T06:36:43;43.27;;;20.40;;
10333;SDS011;5212;47.892;16.406;2024-03-08T06:39:09;37.60;;;17.63;;
10333;SDS011;5212;47.892;16.406;2024-03-08T06:41:35;42.77;;;20.83;;
10333;SDS011;5212;47.892;16.406;2024-03-08T06:44:01;44.43;;;20.77;;
10333;SDS011;5212;47.892;16.406;2024-03-08T06:46:28;45.67;;;20.47;;
10333;SDS011;5212;47.892;16.406;2024-03-08T06:48:54;40.63;;;18.00;;
10333;SDS011;5212;47.892;16.406;2024-03-08T06:51:21;39.37;;;18.60;;
10333;SDS011;5212;47.892;16.406;2024-03-08T06:53:47;43.27;;;21.77;;
10333;SDS011;5212;47.892;16.406;2024-03-08T06:56:14;40.67;;;20.63;;
10333;SDS011;5212;47.892;16.406;2024-03-08T06:58:40;45.70;;;21.63;;
10333;SDS011;5212;47.892;16.406;2024-03-08T07:01:07;45.73;;;19.53;;
10333;SDS011;5212;47.892;16.406;2024-03-08T07:03:38;51.97;;;22.17;;
10333;SDS011;5212;47.892;16.406;2024-03-08T07:06:09;42.27;;;19.53;;
10333;SDS011;5212;47.892;16.406;2024-03-08T07:08:35;43.13;;;20.83;;
10333;SDS011;5212;47.892;16.406;2024-03-08T07:11:01;43.07;;;20.33;;
10333;SDS011;5212;47.892;16.406;2024-03-08T07:13:27;43.53;;;21.87;;
10333;SDS011;5212;47.892;16.406;2024-03-08T07:15:54;37.57;;;18.27;;
10333;SDS011;5212;47.892;16.406;2024-03-08T07:18:20;43.63;;;21.07;;
10333;SDS011;5212;47.892;16.406;2024-03-08T07:20:47;46.90;;;21.27;;
10333;SDS011;5212;47.892;16.406;2024-03-08T07:23:14;42.03;;;19.57;;
10333;SDS011;5212;47.892;16.406;2024-03-08T07:26:01;44.97;;;20.43;;
10333;SDS011;5212;47.892;16.406;2024-03-08T07:28:27;41.93;;;21.20;;
10333;SDS011;5212;47.892;16.406;2024-03-08T07:30:55;39.63;;;20.00;;
10333;SDS011;5212;47.892;16.406;2024-03-08T07:33:33;43.47;;;20.97;;
10333;SDS011;5212;47.892;16.406;2024-03-08T07:35:59;47.93;;;21.97;;
10333;SDS011;5212;47.892;16.406;2024-03-08T07:38:26;49.93;;;22.83;;
10333;SDS011;5212;47.892;16.406;2024-03-08T07:40:52;44.63;;;21.53;;
10333;SDS011;5212;47.892;16.406;2024-03-08T07:43:18;43.80;;;21.63;;
10333;SDS011;5212;47.892;16.406;2024-03-08T07:45:44;41.30;;;20.63;;
10333;SDS011;5212;47.892;16.406;2024-03-08T07:48:10;45.33;;;20.50;;
10333;SDS011;5212;47.892;16.406;2024-03-08T07:50:37;47.60;;;22.17;;
10333;SDS011;5212;47.892;16.406;2024-03-08T07:53:04;43.90;;;21.60;;
10333;SDS011;5212;47.892;16.406;2024-03-08T07:55:31;41.93;;;20.93;;
10333;SDS011;5212;47.892;16.406;2024-03-08T07:57:57;36.27;;;18.53;;
10333;SDS011;5212;47.892;16.406;2024-03-08T08:00:23;45.17;;;21.00;;
10333;SDS011;5212;47.892;16.406;2024-03-08T08:02:53;42.43;;;21.63;;
10333;SDS011;5212;47.892;16.406;2024-03-08T08:05:19;34.50;;;17.83;;
10333;SDS011;5212;47.892;16.406;2024-03-08T08:07:45;42.53;;;20.50;;
10333;SDS011;5212;47.892;16.406;2024-03-08T08:10:11;40.03;;;18.33;;
10333;SDS011;5212;47.892;16.406;2024-03-08T08:12:43;42.87;;;19.70;;
10333;SDS011;5212;47.892;16.406;2024-03-08T08:15:09;45.10;;;19.10;;
10333;SDS011;5212;47.892;16.406;2024-03-08T08:17:36;51.40;;;20.30;;
10333;SDS011;5212;47.892;16.406;2024-03-08T08:20:03;46.20;;;21.20;;
10333;SDS011;5212;47.892;16.406;2024-03-08T08:22:30;43.60;;;20.07;;
10333;SDS011;5212;47.892;16.406;2024-03-08T08:24:56;53.00;;;21.53;;
10333;SDS011;5212;47.892;16.406;2024-03-08T08:27:22;46.33;;;20.97;;
10333;SDS011;5212;47.892;16.406;2024-03-08T08:29:51;46.37;;;20.20;;
10333;SDS011;5212;47.892;16.406;2024-03-08T08:32:17;44.53;;;20.43;;
10333;SDS011;5212;47.892;16.406;2024-03-08T08:34:43;43.20;;;19.60;;
10333;SDS011;5212;47.892;16.406;2024-03-08T08:37:10;47.37;;;19.87;;
10333;SDS011;5212;47.892;16.406;2024-03-08T08:39:37;46.13;;;21.13;;
10333;SDS011;5212;47.892;16.406;2024-03-08T08:42:03;39.20;;;17.33;;
10333;SDS011;5212;47.892;16.406;2024-03-08T08:44:29;43.77;;;20.47;;
10333;SDS011;5212;47.892;16.406;2024-03-08T08:46:56;38.93;;;18.03;;
10333;SDS011;5212;47.892;16.406;2024-03-08T08:49:22;46.43;;;20.90;;
10333;SDS011;5212;47.892;16.406;2024-03-08T08:51:49;38.43;;;19.67;;
10333;SDS011;5212;47.892;16.406;2024-03-08T08:54:16;43.80;;;20.13;;
10333;SDS011;5212;47.892;16.406;2024-03-08T08:56:42;41.00;;;18.67;;
10333;SDS011;5212;47.892;16.406;2024-03-08T08:59:09;44.77;;;18.53;;
10333;SDS011;5212;47.892;16.406;2024-03-08T09:01:38;35.37;;;16.93;;
10333;SDS011;5212;47.892;16.406;2024-03-08T09:04:04;35.63;;;17.47;;
10333;SDS011;5212;47.892;16.406;2024-03-08T09:06:32;33.90;;;17.07;;
10333;SDS011;5212;47.892;16.406;2024-03-08T09:08:58;37.23;;;16.47;;
10333;SDS011;5212;47.892;16.406;2024-03-08T09:11:25;33.30;;;15.57;;
10333;SDS011;5212;47.892;16.406;2024-03-08T09:13:51;34.73;;;15.17;;
10333;SDS011;5212;47.892;16.406;2024-03-08T09:16:18;24.90;;;12.23;;
10333;SDS011;5212;47.892;16.406;2024-03-08T09:18:44;28.70;;;12.50;;
10333;SDS011;5212;47.892;16.406;2024-03-08T09:21:10;30.20;;;13.03;;
10333;SDS011;5212;47.892;16.406;2024-03-08T09:23:38;23.17;;;13.00;;
10333;SDS011;5212;47.892;16.406;2024-03-08T09:26:05;21.70;;;11.20;;
10333;SDS011;5212;47.892;16.406;2024-03-08T09:28:34;22.30;;;11.93;;
10333;SDS011;5212;47.892;16.406;2024-03-08T09:31:00;20.63;;;11.17;;
10333;SDS011;5212;47.892;16.406;2024-03-08T09:33:26;23.30;;;11.63;;
10333;SDS011;5212;47.892;16.406;2024-03-08T09:35:53;20.83;;;10.50;;
10333;SDS011;5212;47.892;16.406;2024-03-08T09:38:19;19.17;;;10.53;;
10333;SDS011;5212;47.892;16.406;2024-03-08T09:40:46;21.60;;;12.10;;
10333;SDS011;5212;47.892;16.406;2024-03-08T09:43:13;19.47;;;11.10;;
10333;SDS011;5212;47.892;16.406;2024-03-08T09:45:40;20.73;;;11.57;;
10333;SDS011;5212;47.892;16.406;2024-03-08T09:48:07;25.27;;;12.20;;
10333;SDS011;5212;47.892;16.406;2024-03-08T09:50:37;26.47;;;11.67;;
10333;SDS011;5212;47.892;16.406;2024-03-08T09:53:03;26.53;;;12.97;;
10333;SDS011;5212;47.892;16.406;2024-03-08T09:55:29;22.83;;;12.30;;
10333;SDS011;5212;47.892;16.406;2024-03-08T09:57:59;24.33;;;12.80;;
10333;SDS011;5212;47.892;16.406;2024-03-08T10:00:47;26.00;;;12.70;;
10333;SDS011;5212;47.892;16.406;2024-03-08T10:03:13;30.27;;;13.63;;
10333;SDS011;5212;47.892;16.406;2024-03-08T10:05:40;26.20;;;13.53;;
10333;SDS011;5212;47.892;16.406;2024-03-08T10:08:06;25.03;;;12.33;;
10333;SDS011;5212;47.892;16.406;2024-03-08T10:10:33;21.33;;;11.43;;
10333;SDS011;5212;47.892;16.406;2024-03-08T10:12:59;22.07;;;11.17;;
10333;SDS011;5212;47.892;16.406;2024-03-08T10:15:26;20.53;;;10.90;;
10333;SDS011;5212;47.892;16.406;2024-03-08T10:17:54;20.43;;;10.17;;
10333;SDS011;5212;47.892;16.406;2024-03-08T10:20:21;21.13;;;10.70;;
10333;SDS011;5212;47.892;16.406;2024-03-08T10:22:49;20.03;;;9.80;;
10333;SDS011;5212;47.892;16.406;2024-03-08T10:25:15;19.57;;;10.50;;
10333;SDS011;5212;47.892;16.406;2024-03-08T10:27:41;22.33;;;11.70;;
10333;SDS011;5212;47.892;16.406;2024-03-08T10:30:08;21.60;;;10.10;;
10333;SDS011;5212;47.892;16.406;2024-03-08T10:32:37;23.07;;;11.27;;
10333;SDS011;5212;47.892;16.406;2024-03-08T10:35:04;23.30;;;10.77;;
10333;SDS011;5212;47.892;16.406;2024-03-08T10:37:30;25.90;;;11.70;;
10333;SDS011;5212;47.892;16.406;2024-03-08T10:40:01;20.40;;;10.20;;
10333;SDS011;5212;47.892;16.406;2024-03-08T10:42:35;20.23;;;11.00;;
10333;SDS011;5212;47.892;16.406;2024-03-08T10:45:06;21.57;;;10.30;;
10333;SDS011;5212;47.892;16.406;2024-03-08T10:47:38;22.03;;;10.73;;
10333;SDS011;5212;47.892;16.406;2024-03-08T10:50:08;24.67;;;11.47;;
10333;SDS011;5212;47.892;16.406;2024-03-08T10:52:38;21.70;;;10.30;;
10333;SDS011;5212;47.892;16.406;2024-03-08T10:55:04;23.93;;;10.37;;
10333;SDS011;5212;47.892;16.406;2024-03-08T10:57:37;16.53;;;9.47;;
10333;SDS011;5212;47.892;16.406;2024-03-08T11:00:04;17.90;;;10.00;;
10333;SDS011;5212;47.892;16.406;2024-03-08T11:02:35;18.80;;;9.40;;
10333;SDS011;5212;47.892;16.406;2024-03-08T11:05:02;19.43;;;10.90;;
10333;SDS011;5212;47.892;16.406;2024-03-08T11:07:33;18.20;;;9.93;;
10333;SDS011;5212;47.892;16.406;2024-03-08T11:10:01;20.20;;;9.50;;
10333;SDS011;5212;47.892;16.406;2024-03-08T11:12:29;19.60;;;10.07;;
10333;SDS011;5212;47.892;16.406;2024-03-08T11:15:02;19.37;;;10.67;;
10333;SDS011;5212;47.892;16.406;2024-03-08T11:17:44;16.90;;;9.10;;
10333;SDS011;5212;47.892;16.406;2024-03-08T11:20:11;20.17;;;10.50;;
10333;SDS011;5212;47.892;16.406;2024-03-08T11:22:41;15.80;;;9.53;;
10333;SDS011;5212;47.892;16.406;2024-03-08T11:25:15;18.23;;;9.20;;
10333;SDS011;5212;47.892;16.406;2024-03-08T11:28:06;18.73;;;10.30;;
10333;SDS011;5212;47.892;16.406;2024-03-08T11:30:33;17.67;;;9.63;;
10333;SDS011;5212;47.892;16.406;2024-03-08T11:33:00;14.73;;;8.33;;
10333;SDS011;5212;47.892;16.406;2024-03-08T11:35:26;16.37;;;9.23;;
10333;SDS011;5212;47.892;16.406;2024-03-08T11:37:53;19.53;;;10.37;;
10333;SDS011;5212;47.892;16.406;2024-03-08T11:40:19;18.17;;;9.67;;
10333;SDS011;5212;47.892;16.406;2024-03-08T11:42:46;24.37;;;11.07;;
10333;SDS011;5212;47.892;16.406;2024-03-08T11:45:13;22.50;;;11.13;;
10333;SDS011;5212;47.892;16.406;2024-03-08T11:47:40;24.60;;;12.20;;
10333;SDS011;5212;47.892;16.406;2024-03-08T11:50:07;21.20;;;11.40;;
10333;SDS011;5212;47.892;16.406;2024-03-08T11:52:36;16.80;;;9.43;;
10333;SDS011;5212;47.892;16.406;2024-03-08T11:55:04;21.00;;;9.40;;
10333;SDS011;5212;47.892;16.406;2024-03-08T11:57:30;17.73;;;9.97;;
10333;SDS011;5212;47.892;16.406;2024-03-08T11:59:57;18.33;;;10.67;;
10333;SDS011;5212;47.892;16.406;2024-03-08T12:02:30;18.80;;;9.50;;
10333;SDS011;5212;47.892;16.406;2024-03-08T12:04:57;21.43;;;10.20;;
10333;SDS011;5212;47.892;16.406;2024-03-08T12:07:24;19.97;;;10.13;;
10333;SDS011;5212;47.892;16.406;2024-03-08T12:12:42;17.17;;;9.93;;
10333;SDS011;5212;47.892;16.406;2024-03-08T12:15:09;21.87;;;11.67;;
10333;SDS011;5212;47.892;16.406;2024-03-08T12:17:36;19.50;;;10.60;;
10333;SDS011;5212;47.892;16.406;2024-03-08T12:20:10;20.73;;;10.33;;
10333;SDS011;5212;47.892;16.406;2024-03-08T12:22:40;21.43;;;11.03;;
10333;SDS011;5212;47.892;16.406;2024-03-08T12:25:07;18.93;;;10.17;;
10333;SDS011;5212;47.892;16.406;2024-03-08T12:27:36;19.00;;;9.83;;
10333;SDS011;5212;47.892;16.406;2024-03-08T12:30:14;19.73;;;10.70;;
10333;SDS011;5212;47.892;16.406;2024-03-08T12:32:46;17.60;;;10.17;;
10333;SDS011;5212;47.892;16.406;2024-03-08T12:35:13;17.43;;;9.33;;
10333;SDS011;5212;47.892;16.406;2024-03-08T12:37:39;16.37;;;9.30;;
10333;SDS011;5212;47.892;16.406;2024-03-08T12:40:07;18.30;;;9.40;;
10333;SDS011;5212;47.892;16.406;2024-03-08T12:42:34;19.03;;;10.17;;
10333;SDS011;5212;47.892;16.406;2024-03-08T12:45:01;19.43;;;10.00;;
10333;SDS011;5212;47.892;16.406;2024-03-08T12:47:28;21.17;;;10.73;;
10333;SDS011;5212;47.892;16.406;2024-03-08T12:49:54;18.80;;;10.07;;
10333;SDS011;5212;47.892;16.406;2024-03-08T12:52:20;20.80;;;9.87;;
10333;SDS011;5212;47.892;16.406;2024-03-08T12:54:46;15.87;;;9.50;;
10333;SDS011;5212;47.892;16.406;2024-03-08T12:57:12;14.33;;;8.27;;
10333;SDS011;5212;47.892;16.406;2024-03-08T12:59:38;15.33;;;8.47;;
10333;SDS011;5212;47.892;16.406;2024-03-08T13:02:08;15.13;;;8.50;;
10333;SDS011;5212;47.892;16.406;2024-03-08T13:04:36;17.50;;;9.43;;
10333;SDS011;5212;47.892;16.406;2024-03-08T13:07:02;13.47;;;8.00;;
10333;SDS011;5212;47.892;16.406;2024-03-08T13:09:28;18.10;;;9.47;;
10333;SDS011;5212;47.892;16.406;2024-03-08T13:11:54;14.37;;;7.57;;
10333;SDS011;5212;47.892;16.406;2024-03-08T13:14:20;15.43;;;8.40;;
10333;SDS011;5212;47.892;16.406;2024-03-08T13:16:46;14.60;;;7.80;;
10333;SDS011;5212;47.892;16.406;2024-03-08T13:19:13;14.57;;;8.10;;
10333;SDS011;5212;47.892;16.406;2024-03-08T13:21:40;15.17;;;8.80;;
10333;SDS011;5212;47.892;16.406;2024-03-08T13:24:07;14.47;;;8.43;;
10333;SDS011;5212;47.892;16.406;2024-03-08T13:26:33;13.97;;;8.13;;
10333;SDS011;5212;47.892;16.406;2024-03-08T13:28:59;14.10;;;7.83;;
10333;SDS011;5212;47.892;16.406;2024-03-08T13:31:25;13.63;;;7.73;;
10333;SDS011;5212;47.892;16.406;2024-03-08T13:33:51;17.40;;;8.07;;
10333;SDS011;5212;47.892;16.406;2024-03-08T13:36:23;16.30;;;8.00;;
10333;SDS011;5212;47.892;16.406;2024-03-08T13:38:54;15.73;;;8.10;;
10333;SDS011;5212;47.892;16.406;2024-03-08T13:41:20;18.20;;;8.40;;
10333;SDS011;5212;47.892;16.406;2024-03-08T13:43:49;15.17;;;8.73;;
10333;SDS011;5212;47.892;16.406;2024-03-08T13:46:16;14.07;;;7.50;;
10333;SDS011;5212;47.892;16.406;2024-03-08T13:48:42;16.13;;;8.33;;
10333;SDS011;5212;47.892;16.406;2024-03-08T13:51:08;15.17;;;7.47;;
10333;SDS011;5212;47.892;16.406;2024-03-08T13:53:36;12.53;;;7.20;;
10333;SDS011;5212;47.892;16.406;2024-03-08T13:56:03;13.93;;;7.60;;
10333;SDS011;5212;47.892;16.406;2024-03-08T13:58:30;16.30;;;8.03;;
10333;SDS011;5212;47.892;16.406;2024-03-08T14:00:56;12.70;;;7.50;;
10333;SDS011;5212;47.892;16.406;2024-03-08T14:03:22;12.80;;;7.17;;
10333;SDS011;5212;47.892;16.406;2024-03-08T14:05:49;12.97;;;7.10;;
10333;SDS011;5212;47.892;16.406;2024-03-08T14:08:15;13.93;;;7.83;;
10333;SDS011;5212;47.892;16.406;2024-03-08T14:10:43;13.43;;;6.97;;
10333;SDS011;5212;47.892;16.406;2024-03-08T14:13:11;12.67;;;7.13;;
10333;SDS011;5212;47.892;16.406;2024-03-08T14:15:38;9.83;;;6.13;;
10333;SDS011;5212;47.892;16.406;2024-03-08T14:18:07;9.90;;;6.20;;
10333;SDS011;5212;47.892;16.406;2024-03-08T14:20:33;12.93;;;7.60;;
10333;SDS011;5212;47.892;16.406;2024-03-08T14:22:59;11.83;;;6.50;;
10333;SDS011;5212;47.892;16.406;2024-03-08T14:25:25;11.50;;;6.27;;